< Cyclone 195713 1957 Season Cyclone 195715 >
Cyclone 195714 (unnamed)
General InformationTrack Information on Google Maps || ResourceGoogle EarthGE AnimationAtom FeedGeoJSON
Detalied Best Track (Time Zone = UTC)
Year Month Day Hour Lat. Long. Pressure (hPa) Wind (kt) Class Image Chart
1957 1 31 23 -12.1 140.2 1005 0 0 -- --
1957 2 1 05 -12.5 140.9 1002 0 0 -- --
1957 2 1 20 -14.0 143.8 1001 0 0 -- --
1957 2 1 23 -14.3 144.4 1001 0 0 -- --
1957 2 2 08 -15.0 145.3 1001 0 0 -- --
1957 2 2 23 -15.3 146.9 1001 0 0 -- --
1957 2 3 23 -15.7 148.6 1000 0 0 -- --
1957 2 4 23 -15.9 149.4 999 0 0 -- --
1957 2 5 11 -16.1 149.7 980 0 0 -- --
1957 2 5 17 -16.1 149.9 960 0 0 -- --
1957 2 5 20 -16.2 150.3 960 0 0 -- --
1957 2 5 23 -16.9 151.4 960 0 0 -- --
1957 2 6 05 -17.1 152.0 960 0 0 -- --
1957 2 6 23 -18.1 151.6 960 0 0 -- --
1957 2 7 11 -17.3 151.0 960 0 0 -- --
1957 2 7 20 -16.7 150.6 958 0 0 -- --
1957 2 7 23 -16.4 150.3 953 0 0 -- --
1957 2 8 02 -16.1 150.1 953 0 0 -- --
1957 2 8 05 -15.9 150.1 953 0 0 -- --
1957 2 8 23 -15.0 150.3 953 0 0 -- --
1957 2 9 05 -14.7 150.4 953 0 0 -- --
1957 2 9 23 -15.7 150.8 953 0 0 -- --
1957 2 10 11 -15.9 151.5 955 0 0 -- --
1957 2 10 23 -16.7 152.5 957.5 0 0 -- --
1957 2 11 11 -17.0 153.2 960 0 0 -- --
1957 2 11 23 -17.3 153.9 960 0 0 -- --
1957 2 12 23 -16.7 155.2 960 0 0 -- --
1957 2 13 23 -17.3 157.0 960 0 0 -- --
1957 2 14 23 -18.4 159.2 960 0 0 -- --
1957 2 15 05 -18.8 160.0 960 0 0 -- --
1957 2 15 11 -20.2 160.6 960 0 0 -- --
1957 2 15 23 -21.6 160.4 960 0 0 -- --
1957 2 16 11 -23.4 160.0 960 0 0 -- --
1957 2 16 23 -25.7 159.5 960 0 0 -- --
1957 2 17 11 -28.4 159.3 960 0 0 -- --
1957 2 17 23 -31.1 157.0 972 0 0 -- --
1957 2 18 05 -31.9 156.0 976 0 0 -- --
1957 2 18 11 -32.1 155.3 980 0 0 -- --
1957 2 18 23 -31.9 153.0 990 0 0 -- --
1957 2 19 02 -31.9 152.6 992 0 0 -- --
1957 2 19 05 -31.9 152.0 994 0 0 -- --
< Cyclone 195713 1957 Season Cyclone 195715 >

Help